Time;durP1;ratioP1;P1;durP2;ratioP2;P2;SDS_P1;SDS_P2;PMS_P1;PMS_P2;Temp;Humidity;BMP_temperature;BMP_pressure;BME280_temperature;BME280_humidity;BME280_pressure;Samples;Min_cycle;Max_cycle;Signal;HPM_P1;HPM_P2
2021/01/18 00:01:43;;;;;;;75.15;7.40;;;2.10;99.90;;;;;;4951011;28;20067;-87
2021/01/18 00:04:08;;;;;;;46.67;6.03;;;2.20;99.90;;;;;;4941745;29;20052;-87
2021/01/18 00:06:36;;;;;;;55.75;5.57;;;2.20;99.90;;;;;;4945125;29;20125;-88
2021/01/18 00:09:02;;;;;;;58.65;5.78;;;2.30;99.90;;;;;;4934893;29;20505;-87
2021/01/18 00:11:28;;;;;;;59.78;6.38;;;2.30;99.90;;;;;;4951363;29;20071;-88
2021/01/18 00:13:54;;;;;;;80.30;7.30;;;2.30;99.90;;;;;;4951300;29;20078;-89
2021/01/18 00:16:22;;;;;;;66.28;8.43;;;2.40;99.90;;;;;;4951067;29;20098;-88
2021/01/18 00:18:48;;;;;;;83.75;9.98;;;2.40;99.90;;;;;;4950911;28;20051;-87
2021/01/18 00:21:14;;;;;;;70.35;8.20;;;2.50;99.90;;;;;;4961988;28;20297;-86
2021/01/18 00:23:41;;;;;;;54.35;7.32;;;2.40;99.90;;;;;;4942713;29;20067;-86
2021/01/18 00:26:08;;;;;;;67.25;7.03;;;2.40;99.90;;;;;;4950014;29;20043;-86
2021/01/18 00:28:35;;;;;;;67.95;5.78;;;2.30;99.90;;;;;;4934398;29;20035;-85
2021/01/18 00:31:02;;;;;;;50.58;6.75;;;2.30;99.90;;;;;;4950948;28;20051;-86
2021/01/18 00:33:28;;;;;;;61.13;6.68;;;2.20;99.90;;;;;;4950367;29;20405;-88
2021/01/18 00:35:54;;;;;;;61.25;6.00;;;2.20;99.90;;;;;;4951342;29;20046;-88
2021/01/18 00:38:20;;;;;;;52.30;4.85;;;2.20;99.90;;;;;;4951328;28;20419;-87
2021/01/18 00:40:46;;;;;;;54.30;4.95;;;2.20;99.90;;;;;;4935553;29;20106;-86
2021/01/18 00:43:12;;;;;;;52.72;4.45;;;2.10;99.90;;;;;;4946703;29;20043;-87
2021/01/18 00:45:38;;;;;;;52.45;4.00;;;2.10;99.90;;;;;;4940910;29;20042;-86
2021/01/18 00:48:04;;;;;;;62.08;5.13;;;2.10;99.90;;;;;;4933686;29;20541;-85
2021/01/18 00:50:30;;;;;;;64.05;6.85;;;2.10;99.90;;;;;;4915778;29;20055;-86
2021/01/18 00:52:58;;;;;;;58.22;6.15;;;2.10;99.90;;;;;;4933637;29;20087;-90
2021/01/18 00:55:25;;;;;;;44.90;5.53;;;2.10;99.90;;;;;;4948189;29;20071;-87
2021/01/18 00:57:51;;;;;;;45.83;5.43;;;2.00;99.90;;;;;;4919446;29;20131;-87
2021/01/18 01:00:28;;;;;;;59.13;7.05;;;2.10;99.90;;;;;;4952743;29;20047;-87
2021/01/18 01:02:54;;;;;;;50.28;5.45;;;2.10;99.90;;;;;;4937196;29;20051;-88
2021/01/18 01:05:23;;;;;;;52.33;5.65;;;2.20;99.90;;;;;;4953239;28;20085;-87
2021/01/18 01:07:52;;;;;;;59.88;6.05;;;2.20;99.90;;;;;;4955136;28;20039;-88
2021/01/18 01:10:19;;;;;;;59.22;5.35;;;2.10;99.90;;;;;;4953939;29;20043;-88
2021/01/18 01:12:45;;;;;;;66.68;6.18;;;2.10;99.90;;;;;;4954256;29;20050;-88
2021/01/18 01:15:12;;;;;;;53.50;4.85;;;2.10;99.90;;;;;;4938044;29;20047;-87
2021/01/18 01:17:45;;;;;;;45.22;6.15;;;2.10;99.90;;;;;;4953968;29;20051;-87
2021/01/18 01:20:13;;;;;;;44.80;4.90;;;2.10;99.90;;;;;;4955037;29;20501;-87
2021/01/18 01:22:39;;;;;;;42.00;5.32;;;2.00;99.90;;;;;;4947879;29;20095;-87
2021/01/18 01:25:09;;;;;;;57.22;5.95;;;2.00;99.90;;;;;;4953270;29;20047;-87
2021/01/18 01:27:35;;;;;;;44.47;5.55;;;2.10;99.90;;;;;;4938049;29;20083;-86
2021/01/18 01:30:03;;;;;;;38.97;3.63;;;2.10;99.90;;;;;;4936725;29;20043;-88
2021/01/18 01:32:29;;;;;;;40.60;3.63;;;2.00;99.90;;;;;;4954513;28;20055;-86
2021/01/18 01:34:54;;;;;;;47.05;4.63;;;2.00;99.90;;;;;;4937079;29;20055;-86
2021/01/18 01:37:20;;;;;;;44.85;5.30;;;2.00;99.90;;;;;;4952484;28;20046;-87
2021/01/18 01:39:46;;;;;;;51.08;4.43;;;2.00;99.90;;;;;;4937268;29;20094;-86
2021/01/18 01:42:20;;;;;;;45.65;5.45;;;2.00;99.90;;;;;;4952707;29;20042;-86
2021/01/18 01:44:45;;;;;;;40.15;5.53;;;2.10;99.90;;;;;;4953191;29;20131;-85
2021/01/18 01:47:34;;;;;;;59.55;5.85;;;2.10;99.90;;;;;;4936546;29;20150;-86
2021/01/18 01:50:03;;;;;;;45.30;5.35;;;2.10;99.90;;;;;;4953723;29;20059;-86
2021/01/18 01:52:30;;;;;;;41.38;5.35;;;2.10;99.90;;;;;;4952773;29;20043;-86
2021/01/18 01:55:00;;;;;;;55.03;5.30;;;2.00;99.90;;;;;;4953553;29;20058;-86
2021/01/18 01:57:29;;;;;;;43.60;4.13;;;2.00;99.90;;;;;;4952259;29;20090;-86
2021/01/18 01:59:57;;;;;;;49.88;3.97;;;2.00;99.90;;;;;;4954062;28;20047;-86
2021/01/18 02:02:24;;;;;;;41.40;4.05;;;2.00;99.90;;;;;;4953050;29;20046;-86
2021/01/18 02:04:50;;;;;;;35.72;4.00;;;2.00;99.90;;;;;;4952923;28;20035;-86
2021/01/18 02:07:27;;;;;;;36.47;4.60;;;2.00;99.90;;;;;;4939872;28;20130;-86
2021/01/18 02:09:56;;;;;;;42.83;4.70;;;2.00;99.90;;;;;;4952474;29;20047;-86
2021/01/18 02:12:24;;;;;;;51.67;4.45;;;2.00;99.90;;;;;;4952615;28;20252;-86
2021/01/18 02:14:56;;;;;;;28.02;3.67;;;2.00;99.90;;;;;;4953148;28;20098;-85
2021/01/18 02:17:46;;;;;;;29.35;3.13;;;1.90;99.90;;;;;;4951865;29;20055;-86
2021/01/18 02:20:30;;;;;;;31.65;2.75;;;1.90;99.90;;;;;;4951701;29;20050;-87
2021/01/18 02:23:21;;;;;;;48.83;6.78;;;1.80;99.90;;;;;;4938507;29;20039;-88
2021/01/18 02:25:51;;;;;;;49.63;3.75;;;1.80;99.90;;;;;;4952305;29;20043;-88
2021/01/18 02:28:26;;;;;;;;;;;1.80;99.90;;;;;;4952465;29;20063;-86
2021/01/18 02:31:21;;;;;;;27.42;3.38;;;1.80;99.90;;;;;;4952258;29;19926;-88
2021/01/18 02:34:21;;;;;;;39.83;3.95;;;1.70;99.90;;;;;;4958622;28;20416;-87
2021/01/18 02:37:10;;;;;;;29.35;3.60;;;1.70;99.90;;;;;;4954975;28;20066;-86
2021/01/18 02:39:48;;;;;;;32.67;3.72;;;1.60;99.90;;;;;;4953166;29;20051;-86
2021/01/18 02:42:20;;;;;;;31.90;3.75;;;1.60;99.90;;;;;;4942781;29;20043;-87
2021/01/18 02:44:48;;;;;;;32.85;3.40;;;1.60;99.90;;;;;;4948466;29;20050;-86
2021/01/18 02:47:18;;;;;;;54.42;4.20;;;1.60;99.90;;;;;;4935346;29;20047;-87
2021/01/18 02:49:47;;;;;;;39.40;3.25;;;1.60;99.90;;;;;;4936188;29;20127;-86
2021/01/18 02:52:16;;;;;;;35.35;3.10;;;1.60;99.90;;;;;;4951039;29;20061;-87
2021/01/18 02:54:41;;;;;;;30.55;3.53;;;1.60;99.90;;;;;;4951497;29;20043;-87
2021/01/18 02:57:14;;;;;;;37.65;3.95;;;1.50;99.90;;;;;;4935096;29;20390;-88
2021/01/18 02:59:41;;;;;;;21.15;2.75;;;1.50;99.90;;;;;;4951361;29;20122;-86
2021/01/18 03:02:28;;;;;;;31.42;3.63;;;1.50;99.90;;;;;;4967026;28;20039;-88
2021/01/18 03:05:32;;;;;;;38.42;4.30;;;1.50;99.90;;;;;;4951143;29;20553;-85
2021/01/18 03:08:06;;;;;;;41.88;4.13;;;1.40;99.90;;;;;;4945199;29;20050;-88
2021/01/18 03:10:42;;;;;;;58.05;4.88;;;1.40;99.90;;;;;;4949356;29;20043;-87
2021/01/18 03:13:29;;;;;;;47.38;3.83;;;1.40;99.90;;;;;;4952338;28;20464;-88
2021/01/18 03:16:10;;;;;;;36.47;3.50;;;1.40;99.90;;;;;;4937675;29;20058;-86
2021/01/18 03:18:36;;;;;;;46.47;4.18;;;1.40;99.90;;;;;;4952787;28;20034;-87
2021/01/18 03:21:02;;;;;;;25.02;3.13;;;1.40;99.90;;;;;;4948629;28;20047;-86
2021/01/18 03:23:29;;;;;;;36.47;4.05;;;1.40;99.90;;;;;;4950263;28;20106;-87
2021/01/18 03:25:56;;;;;;;33.70;4.80;;;1.50;99.90;;;;;;4950863;28;20396;-87
2021/01/18 03:28:24;;;;;;;30.73;3.70;;;1.40;99.90;;;;;;4951056;28;20043;-87
2021/01/18 03:30:50;;;;;;;44.13;3.97;;;1.40;99.90;;;;;;4951005;29;20058;-87
2021/01/18 03:33:24;;;;;;;49.13;3.65;;;1.50;99.90;;;;;;4950594;29;20051;-87
2021/01/18 03:35:51;;;;;;;38.58;3.53;;;1.50;99.90;;;;;;4951655;28;20070;-86
2021/01/18 03:38:17;;;;;;;38.58;3.67;;;1.40;99.90;;;;;;4951346;28;20066;-87
2021/01/18 03:40:42;;;;;;;51.78;3.63;;;1.50;99.90;;;;;;4935406;29;20043;-86
2021/01/18 03:43:09;;;;;;;37.53;3.30;;;1.50;99.90;;;;;;4951206;28;20059;-87
2021/01/18 03:45:37;;;;;;;45.83;3.75;;;1.40;99.90;;;;;;4951034;29;20485;-87
2021/01/18 03:48:08;;;;;;;41.72;4.15;;;1.40;99.90;;;;;;4934897;29;20147;-86
2021/01/18 03:50:34;;;;;;;;;;;1.40;99.90;;;;;;4934452;29;20043;-86
2021/01/18 03:53:00;;;;;;;30.75;3.33;;;1.40;99.90;;;;;;4950849;28;19923;-86
2021/01/18 03:55:25;;;;;;;32.60;4.85;;;1.40;99.90;;;;;;4951347;28;20050;-86
2021/01/18 03:57:54;;;;;;;35.97;3.45;;;1.40;99.90;;;;;;4951183;29;20127;-85
2021/01/18 04:00:28;;;;;;;35.78;4.32;;;1.40;99.90;;;;;;4949862;29;20489;-86
2021/01/18 04:02:54;;;;;;;33.00;3.15;;;1.40;99.90;;;;;;4951923;28;20043;-86
2021/01/18 04:05:21;;;;;;;33.75;3.63;;;1.50;99.90;;;;;;4949075;28;20039;-86
2021/01/18 04:07:48;;;;;;;31.63;3.05;;;1.40;99.90;;;;;;4934597;29;20370;-85
2021/01/18 04:10:16;;;;;;;38.53;3.20;;;1.40;99.90;;;;;;4951253;28;20047;-89
2021/01/18 04:12:44;;;;;;;30.48;3.53;;;1.50;99.90;;;;;;4934718;29;20043;-85
2021/01/18 04:15:11;;;;;;;29.30;3.63;;;1.50;99.90;;;;;;4950379;29;20043;-85
2021/01/18 04:17:41;;;;;;;35.10;4.15;;;1.50;99.90;;;;;;4947246;29;20508;-86
2021/01/18 04:20:08;;;;;;;25.92;3.10;;;1.50;99.90;;;;;;4940789;29;20043;-86
2021/01/18 04:22:34;;;;;;;30.73;2.88;;;1.50;99.90;;;;;;4934009;29;20489;-86
2021/01/18 04:25:00;;;;;;;26.13;3.60;;;1.60;99.90;;;;;;4950905;29;20106;-88
2021/01/18 04:27:26;;;;;;;33.05;3.58;;;1.70;99.90;;;;;;4952404;28;20051;-86
2021/01/18 04:29:52;;;;;;;31.10;4.10;;;1.80;99.90;;;;;;4937358;29;20458;-85
2021/01/18 04:32:17;;;;;;;25.20;3.38;;;1.70;99.90;;;;;;4954187;28;20169;-88
2021/01/18 04:34:43;;;;;;;36.67;4.00;;;1.80;99.90;;;;;;4948472;29;20458;-86
2021/01/18 04:37:09;;;;;;;26.35;2.80;;;1.90;99.90;;;;;;4953650;28;20055;-85
2021/01/18 04:39:35;;;;;;;33.63;3.33;;;1.90;99.90;;;;;;4936850;29;20066;-86
2021/01/18 04:42:01;;;;;;;37.33;3.95;;;2.00;99.90;;;;;;4953607;28;20047;-86
2021/01/18 04:44:27;;;;;;;23.92;2.85;;;1.90;99.90;;;;;;4953084;29;20049;-86
2021/01/18 04:46:55;;;;;;;25.60;3.00;;;1.90;99.90;;;;;;4937565;29;20051;-86
2021/01/18 04:49:21;;;;;;;51.67;4.50;;;1.90;99.90;;;;;;4952630;29;20055;-87
2021/01/18 04:51:55;;;;;;;32.95;3.30;;;1.90;99.90;;;;;;4953483;29;20502;-84
2021/01/18 04:54:25;;;;;;;30.45;2.60;;;1.90;99.90;;;;;;4952647;29;20047;-86
2021/01/18 04:57:13;;;;;;;36.92;3.67;;;1.90;99.90;;;;;;4954165;29;20098;-85
2021/01/18 04:59:49;;;;;;;27.15;2.90;;;1.90;99.90;;;;;;4936399;29;20110;-86
2021/01/18 05:02:15;;;;;;;34.40;3.78;;;1.90;99.90;;;;;;4946058;29;20122;-86
2021/01/18 05:04:43;;;;;;;32.28;3.97;;;1.90;99.90;;;;;;4952336;29;20182;-87
2021/01/18 05:07:34;;;;;;;39.92;3.60;;;1.90;99.90;;;;;;4953059;29;20409;-86
2021/01/18 05:10:06;;;;;;;33.60;4.53;;;1.90;99.90;;;;;;4953077;29;20043;-88
2021/01/18 05:12:35;;;;;;;33.20;4.35;;;1.90;99.90;;;;;;4952466;29;20035;-86
2021/01/18 05:15:12;;;;;;;37.53;4.35;;;1.90;99.90;;;;;;4937388;29;20043;-87
2021/01/18 05:17:48;;;;;;;31.30;4.30;;;1.90;99.90;;;;;;4936606;29;20039;-86
2021/01/18 05:20:19;;;;;;;24.15;4.07;;;1.90;99.90;;;;;;4937507;29;20047;-87
2021/01/18 05:22:49;;;;;;;;;;;1.90;99.90;;;;;;4953162;29;20053;-86
2021/01/18 05:25:17;;;;;;;24.90;3.35;;;2.00;99.90;;;;;;4953082;29;19926;-86
2021/01/18 05:27:58;;;;;;;32.47;3.80;;;2.00;99.90;;;;;;4951960;29;20047;-86
2021/01/18 05:30:24;;;;;;;36.88;4.35;;;2.00;99.90;;;;;;4951913;29;20039;-86
2021/01/18 05:33:01;;;;;;;33.72;4.38;;;2.00;99.90;;;;;;4951884;28;20055;-86
2021/01/18 05:35:27;;;;;;;26.40;4.15;;;2.10;99.90;;;;;;4948996;29;20541;-85
2021/01/18 05:38:10;;;;;;;30.48;3.78;;;2.10;99.90;;;;;;4947996;28;20082;-85
2021/01/18 05:40:41;;;;;;;36.78;4.50;;;2.10;99.90;;;;;;4952021;29;20105;-84
2021/01/18 05:43:07;;;;;;;40.95;4.40;;;2.10;99.90;;;;;;4952721;29;20047;-85
2021/01/18 05:45:38;;;;;;;29.45;3.75;;;2.10;99.90;;;;;;4949425;29;20044;-85
2021/01/18 05:48:05;;;;;;;;;;;2.10;99.90;;;;;;4948294;29;20739;-85
2021/01/18 05:50:32;;;;;;;27.35;3.75;;;2.20;99.90;;;;;;4953015;29;19953;-86
2021/01/18 05:52:58;;;;;;;35.35;4.63;;;2.20;99.90;;;;;;4949708;29;20048;-86
2021/01/18 05:55:25;;;;;;;30.83;4.43;;;2.20;99.90;;;;;;4939254;29;20500;-89
2021/01/18 05:57:59;;;;;;;44.75;5.57;;;2.20;99.90;;;;;;4950900;29;20062;-85
2021/01/18 06:00:36;;;;;;;30.25;4.28;;;2.20;99.90;;;;;;4951565;29;20425;-86
2021/01/18 06:03:07;;;;;;;29.92;4.30;;;2.20;99.90;;;;;;4952630;29;20043;-85
2021/01/18 06:05:36;;;;;;;30.92;4.35;;;2.30;99.90;;;;;;4951115;29;20406;-80
2021/01/18 06:08:33;;;;;;;24.45;4.60;;;2.30;99.90;;;;;;4950567;29;20058;-80
2021/01/18 06:11:11;;;;;;;25.20;4.45;;;2.30;99.90;;;;;;4965753;28;20090;-81
2021/01/18 06:13:57;;;;;;;42.15;4.85;;;2.30;99.90;;;;;;4951549;28;20054;-80
2021/01/18 06:16:36;;;;;;;29.23;4.53;;;2.30;99.90;;;;;;4950223;29;20122;-80
2021/01/18 06:19:15;;;;;;;37.38;7.55;;;2.40;99.90;;;;;;4951264;29;20058;-81
2021/01/18 06:21:53;;;;;;;33.72;5.00;;;2.40;99.90;;;;;;4950630;29;20410;-80
2021/01/18 06:24:27;;;;;;;29.60;3.53;;;2.40;99.90;;;;;;4949828;29;20101;-81
2021/01/18 06:27:37;;;;;;;37.05;4.30;;;2.40;99.90;;;;;;4947642;28;20059;-81
2021/01/18 06:30:26;;;;;;;33.15;4.65;;;2.50;99.90;;;;;;4950074;29;20062;-80
2021/01/18 06:32:56;;;;;;;25.67;5.57;;;2.60;99.90;;;;;;4950215;29;20045;-82
2021/01/18 06:35:32;;;;;;;37.75;5.38;;;2.60;99.90;;;;;;4949388;29;20075;-83
2021/01/18 06:38:07;;;;;;;28.85;5.35;;;2.60;99.90;;;;;;4950035;29;20047;-80
2021/01/18 06:40:39;;;;;;;37.10;4.63;;;2.60;99.90;;;;;;4949748;28;20039;-80
2021/01/18 06:43:11;;;;;;;46.00;6.28;;;2.60;99.90;;;;;;4951605;28;20051;-80
2021/01/18 06:45:46;;;;;;;33.22;5.72;;;2.60;99.90;;;;;;4949527;28;20135;-80
2021/01/18 06:48:15;;;;;;;36.05;5.18;;;2.70;99.90;;;;;;4950100;29;20039;-80
2021/01/18 06:51:01;;;;;;;47.53;7.78;;;2.70;99.90;;;;;;4933663;29;20039;-81
2021/01/18 06:53:42;;;;;;;34.75;6.05;;;2.70;99.90;;;;;;4946112;29;20071;-83
2021/01/18 06:56:36;;;;;;;32.92;5.30;;;2.70;99.90;;;;;;4942819;29;20062;-81
2021/01/18 06:59:27;;;;;;;45.75;6.70;;;2.70;99.90;;;;;;4954941;28;20039;-80
2021/01/18 07:02:13;;;;;;;36.20;6.47;;;2.80;99.90;;;;;;4950589;29;20050;-81
2021/01/18 07:04:45;;;;;;;33.63;6.50;;;2.70;99.90;;;;;;4942767;29;20064;-81
2021/01/18 07:07:35;;;;;;;51.13;6.55;;;2.80;99.90;;;;;;4951495;28;20058;-80
2021/01/18 07:10:11;;;;;;;41.55;6.38;;;2.80;99.90;;;;;;4950219;29;20070;-81
2021/01/18 07:12:58;;;;;;;37.88;6.45;;;2.80;99.90;;;;;;4949183;28;20047;-81
2021/01/18 07:15:42;;;;;;;32.60;7.10;;;2.80;99.90;;;;;;4947128;28;20051;-81
2021/01/18 07:18:20;;;;;;;44.58;7.07;;;2.90;99.90;;;;;;4938131;29;20047;-81
2021/01/18 07:21:01;;;;;;;52.60;7.22;;;2.90;99.90;;;;;;4950301;28;20051;-81
2021/01/18 07:23:29;;;;;;;38.22;7.70;;;2.90;99.90;;;;;;4949479;29;20055;-81
2021/01/18 07:26:54;;;;;;;42.47;7.07;;;2.90;99.90;;;;;;4963516;28;20513;-81
2021/01/18 07:29:26;;;;;;;44.22;7.97;;;2.90;99.90;;;;;;4949480;28;20069;-82
2021/01/18 07:32:02;;;;;;;42.58;8.43;;;2.90;99.90;;;;;;4917009;29;20081;-81
2021/01/18 07:34:30;;;;;;;36.42;7.65;;;2.90;99.90;;;;;;4949467;28;20074;-82
2021/01/18 07:37:10;;;;;;;49.70;7.90;;;3.00;99.90;;;;;;4951550;29;20122;-86
2021/01/18 07:39:38;;;;;;;38.83;7.07;;;3.00;99.90;;;;;;4948699;29;20063;-86
2021/01/18 07:42:06;;;;;;;36.80;7.60;;;2.90;99.90;;;;;;4943527;29;20046;-85
2021/01/18 07:44:47;;;;;;;44.78;8.52;;;3.00;99.90;;;;;;4950659;29;20051;-90
2021/01/18 07:47:14;;;;;;;41.38;7.68;;;3.00;99.90;;;;;;4950675;28;20527;-87
2021/01/18 07:49:46;;;;;;;52.83;8.88;;;3.00;99.90;;;;;;4949712;29;20075;-87
2021/01/18 07:52:26;;;;;;;36.45;8.32;;;3.00;99.90;;;;;;4950439;29;20453;-87
2021/01/18 07:54:54;;;;;;;43.25;8.25;;;3.00;99.90;;;;;;4951336;28;20115;-86
2021/01/18 07:57:35;;;;;;;42.20;9.30;;;3.00;99.90;;;;;;4951111;28;20058;-87
2021/01/18 08:00:23;;;;;;;37.60;7.93;;;3.00;99.90;;;;;;4950996;29;20067;-88
2021/01/18 08:03:12;;;;;;;37.90;9.15;;;3.00;99.90;;;;;;4954999;29;20035;-86
2021/01/18 08:05:42;;;;;;;46.70;10.30;;;3.10;99.90;;;;;;4946231;29;20638;-87
2021/01/18 08:08:16;;;;;;;56.85;9.70;;;3.10;99.90;;;;;;4953620;29;20051;-87
2021/01/18 08:11:01;;;;;;;39.50;9.65;;;3.10;99.90;;;;;;4921633;29;20058;-87
2021/01/18 08:13:49;;;;;;;44.80;11.07;;;3.10;99.90;;;;;;4953734;29;20035;-87
2021/01/18 08:16:19;;;;;;;57.22;9.60;;;3.10;99.90;;;;;;4951188;28;20053;-87
2021/01/18 08:19:01;;;;;;;56.35;11.20;;;3.10;99.90;;;;;;4966283;28;20053;-89
2021/01/18 08:21:33;;;;;;;50.42;10.48;;;3.20;99.90;;;;;;4953676;29;20043;-87
2021/01/18 08:23:59;;;;;;;37.47;10.85;;;3.20;99.90;;;;;;4949373;29;20062;-87
2021/01/18 08:26:25;;;;;;;39.50;9.70;;;3.30;99.90;;;;;;4952191;29;20051;-88
2021/01/18 08:28:50;;;;;;;50.38;9.95;;;3.20;99.90;;;;;;4956481;28;20397;-87
2021/01/18 08:31:16;;;;;;;54.72;11.70;;;3.20;99.90;;;;;;4938943;29;20106;-88
2021/01/18 08:33:42;;;;;;;42.78;11.05;;;3.20;99.90;;;;;;4954158;29;20062;-87
2021/01/18 08:36:09;;;;;;;41.22;11.50;;;3.30;99.90;;;;;;4941763;29;20456;-88
2021/01/18 08:38:36;;;;;;;46.15;10.57;;;3.30;99.90;;;;;;4932637;29;20063;-88
2021/01/18 08:41:10;;;;;;;40.40;9.90;;;3.30;99.90;;;;;;4952558;28;20501;-89
2021/01/18 08:43:45;;;;;;;45.50;11.05;;;3.40;99.90;;;;;;4968153;28;20139;-93
2021/01/18 08:46:33;;;;;;;51.88;11.02;;;3.40;99.90;;;;;;4951263;29;20482;-90
2021/01/18 08:49:29;;;;;;;53.20;10.88;;;3.50;99.90;;;;;;4948958;28;20050;-88
2021/01/18 08:51:56;;;;;;;41.05;11.10;;;3.50;99.90;;;;;;4949311;29;20043;-90
2021/01/18 08:54:36;;;;;;;46.53;11.00;;;3.50;99.90;;;;;;4955301;28;20086;-86
2021/01/18 08:57:23;;;;;;;41.05;11.15;;;3.50;99.90;;;;;;4953090;29;20434;-86
2021/01/18 09:00:01;;;;;;;43.85;10.60;;;3.50;99.90;;;;;;4954473;28;20047;-86
2021/01/18 09:02:28;;;;;;;47.08;10.45;;;3.60;99.90;;;;;;4948222;29;20073;-86
2021/01/18 09:04:53;;;;;;;62.35;13.07;;;3.60;99.90;;;;;;4935162;29;20036;-82
2021/01/18 09:07:19;;;;;;;61.08;11.80;;;3.60;99.90;;;;;;4951893;28;20039;-82
2021/01/18 09:09:45;;;;;;;41.90;10.30;;;3.70;99.90;;;;;;4951396;29;20054;-83
2021/01/18 09:12:11;;;;;;;37.85;10.68;;;3.70;99.90;;;;;;4935119;28;20402;-84
2021/01/18 09:14:37;;;;;;;48.80;11.65;;;3.70;99.90;;;;;;4935446;29;20881;-83
2021/01/18 09:17:07;;;;;;;38.45;10.57;;;3.80;99.90;;;;;;4950685;29;20042;-81
2021/01/18 09:19:33;;;;;;;62.67;12.35;;;3.80;99.90;;;;;;4950395;29;20047;-81
2021/01/18 09:22:00;;;;;;;41.80;11.15;;;3.80;99.90;;;;;;4934611;29;20874;-82
2021/01/18 09:24:27;;;;;;;55.45;10.60;;;3.90;99.90;;;;;;4951500;28;20053;-81
2021/01/18 09:26:53;;;;;;;46.58;11.73;;;3.90;99.90;;;;;;4950943;28;20098;-82
2021/01/18 09:29:22;;;;;;;46.05;11.18;;;4.00;99.90;;;;;;4951055;29;20036;-82
2021/01/18 09:31:49;;;;;;;45.87;10.10;;;4.00;99.90;;;;;;4934779;29;20055;-83
2021/01/18 09:34:15;;;;;;;51.45;10.90;;;4.00;99.90;;;;;;4948144;28;20468;-83
2021/01/18 09:36:42;;;;;;;46.85;10.45;;;4.10;99.90;;;;;;4950930;28;20035;-84
2021/01/18 09:39:21;;;;;;;44.92;10.75;;;4.10;99.90;;;;;;4950669;29;20062;-84
2021/01/18 09:41:46;;;;;;;48.25;9.65;;;4.20;99.90;;;;;;4951126;29;20050;-84
2021/01/18 09:44:13;;;;;;;42.08;9.70;;;4.20;99.90;;;;;;4951329;29;20051;-84
2021/01/18 09:46:42;;;;;;;50.40;11.80;;;4.20;99.90;;;;;;4950622;28;20082;-83
2021/01/18 09:49:08;;;;;;;47.13;10.95;;;4.30;99.90;;;;;;4950464;29;20079;-84
2021/01/18 09:51:34;;;;;;;43.58;10.40;;;4.30;99.90;;;;;;4950676;28;20090;-82
2021/01/18 09:54:00;;;;;;;34.50;9.45;;;4.40;99.90;;;;;;4952231;28;20043;-83
2021/01/18 09:56:27;;;;;;;47.10;10.13;;;4.40;99.90;;;;;;4951121;28;20047;-83
2021/01/18 09:58:59;;;;;;;51.78;10.00;;;4.50;99.90;;;;;;4950487;28;20039;-84
2021/01/18 10:01:27;;;;;;;38.95;9.60;;;4.50;99.90;;;;;;4952259;29;20047;-83
2021/01/18 10:03:55;;;;;;;40.08;9.32;;;4.60;99.90;;;;;;4950412;29;20051;-83
2021/01/18 10:06:27;;;;;;;48.90;10.40;;;4.60;99.90;;;;;;4950525;29;20122;-84
2021/01/18 10:09:07;;;;;;;54.58;11.68;;;4.60;99.90;;;;;;4950424;29;20075;-83
2021/01/18 10:11:47;;;;;;;39.97;9.52;;;4.70;99.90;;;;;;4950911;29;20050;-83
2021/01/18 10:14:24;;;;;;;45.47;9.63;;;4.80;99.90;;;;;;4947805;29;20094;-83
2021/01/18 10:17:00;;;;;;;37.80;8.82;;;4.70;99.90;;;;;;4950438;29;20087;-86
2021/01/18 10:19:30;;;;;;;37.25;8.80;;;4.80;99.90;;;;;;4934971;29;20047;-82
2021/01/18 10:21:58;;;;;;;45.50;8.95;;;4.80;99.90;;;;;;4950318;29;20050;-84
2021/01/18 10:24:25;;;;;;;41.55;8.40;;;4.80;99.90;;;;;;4950278;28;20047;-84
2021/01/18 10:27:00;;;;;;;39.67;9.20;;;4.80;99.90;;;;;;4950313;29;20047;-86
2021/01/18 10:29:28;;;;;;;40.90;9.05;;;4.90;99.90;;;;;;4950648;29;20044;-83
2021/01/18 10:31:53;;;;;;;46.40;10.02;;;4.90;99.90;;;;;;4951378;28;20468;-83
2021/01/18 10:34:22;;;;;;;48.05;10.38;;;4.90;99.90;;;;;;4950919;29;20078;-83
2021/01/18 10:36:50;;;;;;;44.83;8.00;;;4.90;99.90;;;;;;4951495;29;20047;-85
2021/01/18 10:39:32;;;;;;;38.63;8.70;;;4.90;99.90;;;;;;4949850;29;20444;-85
2021/01/18 10:42:04;;;;;;;54.95;8.60;;;4.90;99.90;;;;;;4936777;29;20198;-84
2021/01/18 10:44:31;;;;;;;37.22;8.30;;;4.90;99.90;;;;;;4949941;28;20044;-85
2021/01/18 10:46:57;;;;;;;40.40;8.10;;;4.90;99.90;;;;;;4948557;28;20039;-84
2021/01/18 10:49:34;;;;;;;37.13;6.97;;;4.90;99.90;;;;;;4933101;29;20094;-83
2021/01/18 10:52:11;;;;;;;31.42;8.18;;;4.90;99.90;;;;;;4942569;28;20159;-83
2021/01/18 10:54:38;;;;;;;40.83;8.45;;;5.00;99.90;;;;;;4942885;29;20413;-84
2021/01/18 10:57:22;;;;;;;37.63;7.25;;;5.00;99.90;;;;;;4945951;28;20125;-83
2021/01/18 11:00:27;;;;;;;40.95;7.35;;;5.00;99.90;;;;;;4927185;29;20058;-86
2021/01/18 11:02:58;;;;;;;46.40;6.80;;;5.00;99.90;;;;;;4966161;28;20046;-86
2021/01/18 11:05:36;;;;;;;40.55;7.53;;;5.10;99.90;;;;;;4939542;29;20098;-84
2021/01/18 11:08:04;;;;;;;42.60;6.43;;;5.10;99.90;;;;;;4942233;29;20126;-84
2021/01/18 11:10:31;;;;;;;47.83;8.38;;;5.00;99.90;;;;;;4948571;29;20118;-85
2021/01/18 11:13:09;;;;;;;40.15;7.20;;;5.10;99.90;;;;;;4947253;29;20047;-83
2021/01/18 11:15:41;;;;;;;49.38;7.57;;;5.10;99.90;;;;;;4948276;29;20051;-83
2021/01/18 11:18:08;;;;;;;46.15;7.63;;;5.10;99.90;;;;;;4943156;28;20036;-84
2021/01/18 11:20:35;;;;;;;29.13;6.72;;;5.10;99.90;;;;;;4945032;29;20421;-83
2021/01/18 11:23:02;;;;;;;42.30;6.63;;;5.10;99.90;;;;;;4927905;29;20486;-83
2021/01/18 11:25:30;;;;;;;46.47;6.95;;;5.00;99.90;;;;;;4949130;28;20516;-85
2021/01/18 11:28:17;;;;;;;33.55;6.40;;;5.00;99.90;;;;;;4948670;28;20057;-86
2021/01/18 11:30:43;;;;;;;27.30;6.60;;;5.10;99.90;;;;;;4949452;28;20490;-83
2021/01/18 11:33:10;;;;;;;38.63;7.15;;;5.10;99.90;;;;;;4947431;29;20047;-84
2021/01/18 11:35:38;;;;;;;26.08;5.75;;;5.10;99.90;;;;;;4948662;28;20047;-84
2021/01/18 11:38:03;;;;;;;34.30;5.97;;;5.10;99.90;;;;;;4946539;28;20561;-83
2021/01/18 11:40:29;;;;;;;25.42;5.53;;;5.10;99.90;;;;;;4931646;29;20063;-84
2021/01/18 11:43:01;;;;;;;41.38;6.47;;;5.10;99.90;;;;;;4930901;29;20134;-88
2021/01/18 11:45:28;;;;;;;25.73;5.50;;;5.10;99.90;;;;;;4931736;29;20035;-84
2021/01/18 11:47:54;;;;;;;40.00;6.03;;;5.10;99.90;;;;;;4947488;28;20074;-84
2021/01/18 11:50:20;;;;;;;26.92;5.30;;;5.10;99.90;;;;;;4948242;28;20832;-85
2021/01/18 11:52:48;;;;;;;35.85;6.38;;;5.20;99.90;;;;;;4949284;28;20322;-87
2021/01/18 11:55:16;;;;;;;24.33;4.47;;;5.20;99.90;;;;;;4934130;29;20172;-84
2021/01/18 11:57:47;;;;;;;19.83;4.72;;;5.20;99.90;;;;;;4932380;29;20051;-83
2021/01/18 12:00:18;;;;;;;26.25;6.10;;;5.20;99.90;;;;;;4948300;28;20453;-85
2021/01/18 12:02:44;;;;;;;33.30;5.18;;;5.30;99.90;;;;;;4949200;28;20097;-84
2021/01/18 12:05:11;;;;;;;24.80;4.70;;;5.30;99.90;;;;;;4946420;28;20047;-85
2021/01/18 12:07:37;;;;;;;30.65;6.97;;;5.30;99.90;;;;;;4949594;28;20126;-85
2021/01/18 12:10:05;;;;;;;27.13;4.88;;;5.30;99.90;;;;;;4944054;28;20047;-85
2021/01/18 12:12:33;;;;;;;28.08;5.43;;;5.20;99.90;;;;;;4947791;29;20722;-84
2021/01/18 12:14:59;;;;;;;18.27;4.80;;;5.20;99.90;;;;;;4949502;29;20074;-87
2021/01/18 12:17:25;;;;;;;34.45;5.78;;;5.20;99.90;;;;;;4930097;29;20078;-86
2021/01/18 12:19:51;;;;;;;28.00;4.97;;;5.20;99.90;;;;;;4932203;29;20051;-86
2021/01/18 12:22:17;;;;;;;27.30;4.82;;;5.20;99.90;;;;;;4931255;29;20035;-85
2021/01/18 12:24:44;;;;;;;30.17;4.22;;;5.20;99.90;;;;;;4949415;28;20039;-83
2021/01/18 12:27:10;;;;;;;44.42;5.68;;;5.20;99.90;;;;;;4931231;29;20043;-84
2021/01/18 12:29:36;;;;;;;30.20;4.75;;;5.30;99.90;;;;;;4928397;29;20055;-82
2021/01/18 12:32:02;;;;;;;27.70;5.00;;;5.30;99.90;;;;;;4948149;28;20054;-85
2021/01/18 12:34:28;;;;;;;35.58;5.45;;;5.30;99.90;;;;;;4949284;28;20047;-84
2021/01/18 12:36:57;;;;;;;33.42;4.68;;;5.40;99.90;;;;;;4931914;29;20043;-83
2021/01/18 12:39:23;;;;;;;32.05;4.63;;;5.40;99.90;;;;;;4935874;28;20047;-85
2021/01/18 12:41:49;;;;;;;25.88;3.85;;;5.40;99.90;;;;;;4937945;28;20059;-84
2021/01/18 12:44:15;;;;;;;35.28;4.50;;;5.50;99.90;;;;;;4945838;28;20052;-84
2021/01/18 12:46:41;;;;;;;37.70;3.97;;;5.50;99.90;;;;;;4954665;28;20039;-85
2021/01/18 12:49:08;;;;;;;35.65;5.28;;;5.50;99.90;;;;;;4950942;28;20046;-84
2021/01/18 12:51:34;;;;;;;29.90;4.68;;;5.50;99.90;;;;;;4952191;28;20596;-83
2021/01/18 12:53:59;;;;;;;43.38;5.03;;;5.50;99.90;;;;;;4950664;28;20075;-83
2021/01/18 12:56:27;;;;;;;41.58;4.60;;;5.50;99.90;;;;;;4933466;29;20219;-83
2021/01/18 12:58:53;;;;;;;32.55;5.35;;;5.50;99.90;;;;;;4952011;29;20051;-84
2021/01/18 13:01:34;;;;;;;24.50;3.92;;;5.50;99.90;;;;;;4919778;29;20047;-84
2021/01/18 13:04:01;;;;;;;34.80;4.97;;;5.50;99.90;;;;;;4943642;29;20094;-84
2021/01/18 13:06:34;;;;;;;38.10;3.85;;;5.60;99.90;;;;;;4950995;29;20134;-84
2021/01/18 13:09:00;;;;;;;36.53;5.00;;;5.60;99.90;;;;;;4951226;29;20496;-84